Saturday, November 22, 2014
02:45 UTC
  |  Log In   |  Register Free
Airport Search:

John F Kennedy Memorial Airport
(KASX)

John F Kennedy Memorial Airport Diagram
No Airport Diagram Available

FAA data valid effective November 13, 2014 - January 08, 2015 (unless otherwise noted).

 
 
 
 
 
 
 
 
 
 
 
 
 
 

Current Aviation Weather for John F Kennedy Memorial Airport (KASX)

The most recent METAR observation for KASX was updated at: 0116
METAR Summary (Translated METAR)
KASX
220053Z AUTO 20016G25KT 10SM CLR M03/M11 A2989 RMK AO2 PK WND 22026/0039 SLP140 T10331111
KIWD
220115Z AUTO 20018G24KT 10SM CLR M03/M12 A2983 RMK AO1
(32.6 nm SE from KASX)
KHYR
220053Z AUTO 19014G20KT 10SM CLR M04/M11 A2993 RMK AO2 PK WND 18027/0006 SLP165 T10441111
(38.2 nm SW from KASX)
TAF Summary (Translated TAF)
KIWD
(32.6 nm SE from KASX)
211941Z 2118/2218 20015G25KT P6SM BKN100 FM220800 22013G21KT P6SM BKN025 FM221400 22010KT P6SM BKN015 AMD LTD TO CLD VIS AND WIND
KHYR
(38.2 nm SW from KASX)
220037Z 2201/2224 20012G22KT P6SM OVC120 WS020/23045KT FM220600 21014KT P6SM BKN018 OVC100 WS020/26040KT FM221000 22010KT 6SM -DZ OVC015 FM221800 20005KT 4SM -DZ BR OVC007
  Airport Weather Conditions for KASX

 Current Weather at ASX
26° F
Fair
South winds at 17.3 mph
ASX NOAA Radar

Pressure: 29.86 in
Humidity: 57%
Wind: from the South at 17.3 gusting to 29.9 MPH (15 gusting to 26 KT)
Dew Point: 12.9°F
Visibility: 10.00 mi


Airport Weather Forecast for KASX

Translated METAR and TAF for KASX
Translated METAR for KASX (0240 UTC 22 November 2014)
found at http://aviationweather.gov/adds/metars/
 
METAR text: KASX 220153Z AUTO 20015G26KT 10SM CLR M03/M11 A2986 RMK AO2 PK WND 20027/0131 SLP128 T10331106
Conditions at: KASX (ASHLAND , WI, US) observed 0153 UTC 22 November 2014
Temperature: -3.3°C (26°F)
Dewpoint: -10.6°C (13°F) [RH = 57%]
Pressure (altimeter): 29.86 inches Hg (1011.3 mb)
[Sea-level pressure: 1012.8 mb]
Winds: from the SSW (200 degrees) at 17 MPH (15 knots; 7.8 m/s)
gusting to 30 MPH (26 knots; 13.5 m/s)
Visibility: 10 or more miles (16+ km)
Ceiling: at least 12,000 feet AGL
Clouds: sky clear below 12,000 feet AGL
Weather: automated observation with no human augmentation;
there may or may not be significant weather present at this time
Translated TAF for KASX

There is no translated TAF available for this airport

Find All Airport Services Find A Hotel Find A Rental Car Find A Golf Course Find A Restaurant $100 Hamburger



FBO's on the Field
FBO Company Facility Photos Services Transportation Aviation Fuel Prices: Prices include tax
Catering Weather Repair Courtesy Rental Type 100LL JetA JetA+ MOGAS 8087
 
John F Kennedy Memorial Airport

This FBO has not yet been rated
FS:Phillips 66
Last Updated: Nov-17
Login to update fuel prices
SS:
Contact John F Kennedy Memorial AirportMore FBO Information
 
Add another FBO Facility Photos Catering Weather Repair Courtesy Rental Type 100LL JetA JetA+ MOGAS 8087
Services Transportation Aviation Fuel Prices: Prices include tax


model-print
model-print
model-print
model-print